sensor_id;sensor_type;location;lat;lon;timestamp;pressure;altitude;pressure_sealevel;temperature;humidity
64889;BME280;51386;53.082;8.816;2023-05-09T00:01:27;101854.53;;;19.22;39.08
64889;BME280;51386;53.082;8.816;2023-05-09T00:03:57;101854.16;;;19.18;38.99
64889;BME280;51386;53.082;8.816;2023-05-09T00:06:25;101855.97;;;19.11;39.18
64889;BME280;51386;53.082;8.816;2023-05-09T00:08:53;101852.06;;;19.14;39.38
64889;BME280;51386;53.082;8.816;2023-05-09T00:11:20;101853.91;;;19.07;39.30
64889;BME280;51386;53.082;8.816;2023-05-09T00:13:51;101848.56;;;19.00;39.37
64889;BME280;51386;53.082;8.816;2023-05-09T00:16:18;101851.44;;;18.99;39.36
64889;BME280;51386;53.082;8.816;2023-05-09T00:18:46;101850.59;;;18.91;39.37
64889;BME280;51386;53.082;8.816;2023-05-09T00:21:13;101846.47;;;18.89;39.51
64889;BME280;51386;53.082;8.816;2023-05-09T00:23:40;101847.50;;;18.88;39.35
64889;BME280;51386;53.082;8.816;2023-05-09T00:26:08;101839.09;;;18.84;39.42
64889;BME280;51386;53.082;8.816;2023-05-09T00:28:35;101839.88;;;18.78;39.68
64889;BME280;51386;53.082;8.816;2023-05-09T00:31:03;101844.00;;;18.81;39.61
64889;BME280;51386;53.082;8.816;2023-05-09T00:33:31;101830.44;;;18.76;39.67
64889;BME280;51386;53.082;8.816;2023-05-09T00:35:58;101834.13;;;18.68;39.66
64889;BME280;51386;53.082;8.816;2023-05-09T00:38:25;101835.53;;;18.64;39.69
64889;BME280;51386;53.082;8.816;2023-05-09T00:40:52;101824.41;;;18.54;40.05
64889;BME280;51386;53.082;8.816;2023-05-09T00:43:19;101820.53;;;18.57;39.86
64889;BME280;51386;53.082;8.816;2023-05-09T00:45:47;101819.72;;;18.56;39.71
64889;BME280;51386;53.082;8.816;2023-05-09T00:48:15;101814.78;;;18.53;39.85
64889;BME280;51386;53.082;8.816;2023-05-09T00:50:43;101812.50;;;18.50;39.93
64889;BME280;51386;53.082;8.816;2023-05-09T00:53:10;101802.66;;;18.51;39.74
64889;BME280;51386;53.082;8.816;2023-05-09T00:55:38;101801.66;;;18.52;39.66
64889;BME280;51386;53.082;8.816;2023-05-09T00:58:05;101797.94;;;18.46;39.63
64889;BME280;51386;53.082;8.816;2023-05-09T01:00:32;101795.41;;;18.45;39.57
64889;BME280;51386;53.082;8.816;2023-05-09T01:02:59;101795.88;;;18.48;39.47
64889;BME280;51386;53.082;8.816;2023-05-09T01:05:37;101793.78;;;18.44;39.52
64889;BME280;51386;53.082;8.816;2023-05-09T01:08:12;101787.41;;;18.38;39.41
64889;BME280;51386;53.082;8.816;2023-05-09T01:10:52;101791.72;;;18.39;39.31
64889;BME280;51386;53.082;8.816;2023-05-09T01:13:29;101790.88;;;18.32;39.33
64889;BME280;51386;53.082;8.816;2023-05-09T01:16:05;101785.94;;;18.29;39.23
64889;BME280;51386;53.082;8.816;2023-05-09T01:18:42;101784.88;;;18.23;39.26
64889;BME280;51386;53.082;8.816;2023-05-09T01:21:20;101774.44;;;18.22;39.20
64889;BME280;51386;53.082;8.816;2023-05-09T01:24:28;101778.47;;;18.11;39.54
64889;BME280;51386;53.082;8.816;2023-05-09T01:27:20;101769.84;;;18.09;39.12
64889;BME280;51386;53.082;8.816;2023-05-09T01:29:56;101769.84;;;18.03;39.28
64889;BME280;51386;53.082;8.816;2023-05-09T01:32:27;101772.50;;;18.03;39.50
64889;BME280;51386;53.082;8.816;2023-05-09T01:34:58;101771.06;;;18.07;39.20
64889;BME280;51386;53.082;8.816;2023-05-09T01:37:32;101770.06;;;18.08;39.22
64889;BME280;51386;53.082;8.816;2023-05-09T01:40:05;101764.34;;;18.11;39.15
64889;BME280;51386;53.082;8.816;2023-05-09T01:42:40;101759.41;;;18.08;38.78
64889;BME280;51386;53.082;8.816;2023-05-09T01:45:12;101766.16;;;18.04;39.02
64889;BME280;51386;53.082;8.816;2023-05-09T01:47:41;101761.78;;;17.90;39.11
64889;BME280;51386;53.082;8.816;2023-05-09T01:50:11;101763.59;;;17.83;39.30
64889;BME280;51386;53.082;8.816;2023-05-09T01:52:40;101760.50;;;17.79;39.21
64889;BME280;51386;53.082;8.816;2023-05-09T01:55:09;101758.03;;;17.78;39.12
64889;BME280;51386;53.082;8.816;2023-05-09T01:57:39;101760.06;;;17.76;39.12
64889;BME280;51386;53.082;8.816;2023-05-09T02:00:09;101752.88;;;17.76;39.21
64889;BME280;51386;53.082;8.816;2023-05-09T02:02:39;101744.72;;;17.78;38.95
64889;BME280;51386;53.082;8.816;2023-05-09T02:05:09;101752.09;;;17.76;38.73
64889;BME280;51386;53.082;8.816;2023-05-09T02:07:39;101746.75;;;17.76;38.83
64889;BME280;51386;53.082;8.816;2023-05-09T02:10:10;101743.06;;;17.77;38.79
64889;BME280;51386;53.082;8.816;2023-05-09T02:12:38;101748.59;;;17.75;38.98
64889;BME280;51386;53.082;8.816;2023-05-09T02:15:08;101742.00;;;17.71;38.95
64889;BME280;51386;53.082;8.816;2023-05-09T02:17:35;101738.53;;;17.71;38.82
64889;BME280;51386;53.082;8.816;2023-05-09T02:20:04;101736.25;;;17.68;38.99
64889;BME280;51386;53.082;8.816;2023-05-09T02:22:31;101738.09;;;17.67;38.80
64889;BME280;51386;53.082;8.816;2023-05-09T02:24:58;101742.88;;;17.50;39.19
64889;BME280;51386;53.082;8.816;2023-05-09T02:27:27;101737.88;;;17.41;39.43
64889;BME280;51386;53.082;8.816;2023-05-09T02:29:56;101733.78;;;17.38;39.25
64889;BME280;51386;53.082;8.816;2023-05-09T02:32:30;101723.47;;;17.29;39.55
64889;BME280;51386;53.082;8.816;2023-05-09T02:35:00;101724.69;;;17.26;39.56
64889;BME280;51386;53.082;8.816;2023-05-09T02:37:30;101725.47;;;17.20;39.75
64889;BME280;51386;53.082;8.816;2023-05-09T02:39:57;101727.25;;;17.13;39.90
64889;BME280;51386;53.082;8.816;2023-05-09T02:42:25;101726.22;;;17.14;39.80
64889;BME280;51386;53.082;8.816;2023-05-09T02:44:53;101733.56;;;17.12;39.99
64889;BME280;51386;53.082;8.816;2023-05-09T02:47:20;101724.84;;;17.18;39.83
64889;BME280;51386;53.082;8.816;2023-05-09T02:49:49;101725.88;;;17.24;39.41
64889;BME280;51386;53.082;8.816;2023-05-09T02:52:16;101720.16;;;17.20;39.51
64889;BME280;51386;53.082;8.816;2023-05-09T02:54:42;101719.53;;;17.18;39.60
64889;BME280;51386;53.082;8.816;2023-05-09T02:57:09;101715.66;;;17.21;39.52
64889;BME280;51386;53.082;8.816;2023-05-09T02:59:36;101713.09;;;17.06;39.94
64889;BME280;51386;53.082;8.816;2023-05-09T03:02:03;101716.13;;;17.03;39.98
64889;BME280;51386;53.082;8.816;2023-05-09T03:04:31;101706.47;;;17.02;39.86
64889;BME280;51386;53.082;8.816;2023-05-09T03:06:59;101713.03;;;17.00;39.63
64889;BME280;51386;53.082;8.816;2023-05-09T03:09:26;101700.75;;;16.99;39.93
64889;BME280;51386;53.082;8.816;2023-05-09T03:11:54;101704.59;;;16.96;39.63
64889;BME280;51386;53.082;8.816;2023-05-09T03:14:22;101698.41;;;16.89;40.22
64889;BME280;51386;53.082;8.816;2023-05-09T03:16:49;101703.47;;;16.84;40.19
64889;BME280;51386;53.082;8.816;2023-05-09T03:19:16;101693.63;;;16.78;40.10
64889;BME280;51386;53.082;8.816;2023-05-09T03:21:43;101698.28;;;16.76;40.46
64889;BME280;51386;53.082;8.816;2023-05-09T03:24:11;101688.31;;;16.78;40.20
64889;BME280;51386;53.082;8.816;2023-05-09T03:26:38;101691.34;;;16.75;40.13
64889;BME280;51386;53.082;8.816;2023-05-09T03:29:05;101685.75;;;16.70;40.18
64889;BME280;51386;53.082;8.816;2023-05-09T03:31:32;101684.88;;;16.63;40.24
64889;BME280;51386;53.082;8.816;2023-05-09T03:33:59;101691.84;;;16.64;40.36
64889;BME280;51386;53.082;8.816;2023-05-09T03:36:26;101693.13;;;16.68;40.66
64889;BME280;51386;53.082;8.816;2023-05-09T03:38:53;101693.13;;;16.68;40.56
64889;BME280;51386;53.082;8.816;2023-05-09T03:41:21;101689.00;;;16.65;40.41
64889;BME280;51386;53.082;8.816;2023-05-09T03:43:48;101686.59;;;16.70;40.51
64889;BME280;51386;53.082;8.816;2023-05-09T03:46:15;101698.69;;;16.73;40.61
64889;BME280;51386;53.082;8.816;2023-05-09T03:48:42;101698.84;;;16.71;40.59
64889;BME280;51386;53.082;8.816;2023-05-09T03:51:09;101693.38;;;16.73;40.48
64889;BME280;51386;53.082;8.816;2023-05-09T03:53:36;101684.63;;;16.79;40.42
64889;BME280;51386;53.082;8.816;2023-05-09T03:56:03;101682.72;;;16.73;40.45
64889;BME280;51386;53.082;8.816;2023-05-09T03:58:31;101682.03;;;16.64;40.75
64889;BME280;51386;53.082;8.816;2023-05-09T04:00:58;101675.03;;;16.57;40.73
64889;BME280;51386;53.082;8.816;2023-05-09T04:03:25;101678.69;;;16.56;40.98
64889;BME280;51386;53.082;8.816;2023-05-09T04:05:53;101678.22;;;16.52;40.99
64889;BME280;51386;53.082;8.816;2023-05-09T04:08:20;101678.06;;;16.54;41.19
64889;BME280;51386;53.082;8.816;2023-05-09T04:10:49;101676.41;;;16.53;41.04
64889;BME280;51386;53.082;8.816;2023-05-09T04:13:16;101668.13;;;16.48;41.43
64889;BME280;51386;53.082;8.816;2023-05-09T04:15:44;101669.13;;;16.40;41.21
64889;BME280;51386;53.082;8.816;2023-05-09T04:18:11;101669.78;;;16.27;41.84
64889;BME280;51386;53.082;8.816;2023-05-09T04:20:38;101667.69;;;16.23;42.02
64889;BME280;51386;53.082;8.816;2023-05-09T04:23:05;101672.44;;;16.27;41.86
64889;BME280;51386;53.082;8.816;2023-05-09T04:25:32;101664.09;;;16.31;42.29
64889;BME280;51386;53.082;8.816;2023-05-09T04:28:00;101671.41;;;16.28;41.98
64889;BME280;51386;53.082;8.816;2023-05-09T04:30:27;101661.44;;;16.31;42.17
64889;BME280;51386;53.082;8.816;2023-05-09T04:32:55;101668.28;;;16.40;41.61
64889;BME280;51386;53.082;8.816;2023-05-09T04:35:22;101671.63;;;16.48;41.69
64889;BME280;51386;53.082;8.816;2023-05-09T04:37:50;101669.75;;;16.42;41.94
64889;BME280;51386;53.082;8.816;2023-05-09T04:40:17;101671.41;;;16.50;42.07
64889;BME280;51386;53.082;8.816;2023-05-09T04:42:44;101659.88;;;16.57;41.64
64889;BME280;51386;53.082;8.816;2023-05-09T04:45:11;101663.00;;;16.61;41.65
64889;BME280;51386;53.082;8.816;2023-05-09T04:47:39;101657.78;;;16.53;41.79
64889;BME280;51386;53.082;8.816;2023-05-09T04:50:09;101647.91;;;16.47;42.27
64889;BME280;51386;53.082;8.816;2023-05-09T04:52:36;101650.84;;;16.52;42.23
64889;BME280;51386;53.082;8.816;2023-05-09T04:55:03;101650.38;;;16.48;42.44
64889;BME280;51386;53.082;8.816;2023-05-09T04:57:30;101645.53;;;16.52;42.53
64889;BME280;51386;53.082;8.816;2023-05-09T04:59:58;101649.06;;;16.59;42.24
64889;BME280;51386;53.082;8.816;2023-05-09T05:02:25;101641.19;;;16.51;42.52
64889;BME280;51386;53.082;8.816;2023-05-09T05:04:52;101641.47;;;16.56;42.35
64889;BME280;51386;53.082;8.816;2023-05-09T05:07:37;101634.13;;;16.58;42.67
64889;BME280;51386;53.082;8.816;2023-05-09T05:10:05;101639.19;;;16.53;42.84
64889;BME280;51386;53.082;8.816;2023-05-09T05:12:33;101624.31;;;16.58;42.70
64889;BME280;51386;53.082;8.816;2023-05-09T05:14:59;101628.94;;;16.71;42.37
64889;BME280;51386;53.082;8.816;2023-05-09T05:17:26;101623.22;;;16.74;42.23
64889;BME280;51386;53.082;8.816;2023-05-09T05:19:55;101627.19;;;16.84;42.34
64889;BME280;51386;53.082;8.816;2023-05-09T05:22:22;101619.22;;;16.84;42.13
64889;BME280;51386;53.082;8.816;2023-05-09T05:24:51;101624.19;;;16.94;42.14
64889;BME280;51386;53.082;8.816;2023-05-09T05:27:18;101625.47;;;17.05;42.06
64889;BME280;51386;53.082;8.816;2023-05-09T05:29:45;101614.09;;;17.17;41.82
64889;BME280;51386;53.082;8.816;2023-05-09T05:32:11;101619.44;;;17.24;41.72
64889;BME280;51386;53.082;8.816;2023-05-09T05:34:38;101617.03;;;17.29;41.62
64889;BME280;51386;53.082;8.816;2023-05-09T05:37:05;101613.00;;;17.39;41.62
64889;BME280;51386;53.082;8.816;2023-05-09T05:39:32;101610.50;;;17.38;41.71
64889;BME280;51386;53.082;8.816;2023-05-09T05:42:01;101607.84;;;17.38;41.75
64889;BME280;51386;53.082;8.816;2023-05-09T05:44:27;101602.34;;;17.39;42.03
64889;BME280;51386;53.082;8.816;2023-05-09T05:46:54;101603.97;;;17.40;42.13
64889;BME280;51386;53.082;8.816;2023-05-09T05:49:21;101601.16;;;17.48;41.85
64889;BME280;51386;53.082;8.816;2023-05-09T05:51:50;101602.81;;;17.49;41.99
64889;BME280;51386;53.082;8.816;2023-05-09T05:54:17;101599.38;;;17.55;41.94
64889;BME280;51386;53.082;8.816;2023-05-09T05:56:44;101597.56;;;17.63;41.90
64889;BME280;51386;53.082;8.816;2023-05-09T05:59:12;101593.50;;;17.73;41.73
64889;BME280;51386;53.082;8.816;2023-05-09T06:01:39;101594.16;;;17.88;41.54
64889;BME280;51386;53.082;8.816;2023-05-09T06:04:07;101592.75;;;17.99;41.33
64889;BME280;51386;53.082;8.816;2023-05-09T06:06:34;101594.00;;;18.09;41.28
64889;BME280;51386;53.082;8.816;2023-05-09T06:09:01;101591.75;;;18.13;41.20
64889;BME280;51386;53.082;8.816;2023-05-09T06:11:28;101596.03;;;18.14;41.05
64889;BME280;51386;53.082;8.816;2023-05-09T06:13:55;101596.03;;;18.14;41.16
64889;BME280;51386;53.082;8.816;2023-05-09T06:16:33;101596.25;;;18.06;41.63
64889;BME280;51386;53.082;8.816;2023-05-09T06:19:00;101592.97;;;18.10;41.62
64889;BME280;51386;53.082;8.816;2023-05-09T06:21:30;101593.81;;;18.11;41.70
64889;BME280;51386;53.082;8.816;2023-05-09T06:23:57;101591.16;;;18.24;41.68
64889;BME280;51386;53.082;8.816;2023-05-09T06:26:40;101589.31;;;18.31;41.41
64889;BME280;51386;53.082;8.816;2023-05-09T06:29:07;101577.19;;;18.35;41.48
64889;BME280;51386;53.082;8.816;2023-05-09T06:31:35;101576.00;;;18.44;41.27
64889;BME280;51386;53.082;8.816;2023-05-09T06:34:04;101559.81;;;18.52;41.35
64889;BME280;51386;53.082;8.816;2023-05-09T06:36:31;101570.88;;;18.62;41.42
64889;BME280;51386;53.082;8.816;2023-05-09T06:38:59;101565.34;;;18.70;41.29
64889;BME280;51386;53.082;8.816;2023-05-09T06:41:26;101559.16;;;18.76;41.26
64889;BME280;51386;53.082;8.816;2023-05-09T06:43:53;101554.66;;;18.77;41.23
64889;BME280;51386;53.082;8.816;2023-05-09T06:46:20;101552.22;;;18.75;41.69
64889;BME280;51386;53.082;8.816;2023-05-09T06:48:51;101550.13;;;18.71;41.92
64889;BME280;51386;53.082;8.816;2023-05-09T06:51:18;101548.09;;;18.79;41.90
64889;BME280;51386;53.082;8.816;2023-05-09T06:53:47;101556.91;;;18.86;41.83
64889;BME280;51386;53.082;8.816;2023-05-09T06:56:17;101550.50;;;19.01;41.79
64889;BME280;51386;53.082;8.816;2023-05-09T06:58:46;101557.47;;;19.08;41.76
64889;BME280;51386;53.082;8.816;2023-05-09T07:01:13;101538.97;;;19.07;41.79
64889;BME280;51386;53.082;8.816;2023-05-09T07:03:40;101541.00;;;19.18;41.60
64889;BME280;51386;53.082;8.816;2023-05-09T07:06:08;101537.28;;;19.25;41.35
64889;BME280;51386;53.082;8.816;2023-05-09T07:08:36;101532.31;;;19.29;41.53
64889;BME280;51386;53.082;8.816;2023-05-09T07:11:03;101516.06;;;19.43;41.58
64889;BME280;51386;53.082;8.816;2023-05-09T07:13:30;101520.94;;;19.53;41.55
64889;BME280;51386;53.082;8.816;2023-05-09T07:15:57;101513.31;;;19.56;41.57
64889;BME280;51386;53.082;8.816;2023-05-09T07:18:24;101507.66;;;19.71;41.52
64889;BME280;51386;53.082;8.816;2023-05-09T07:20:51;101501.25;;;19.79;41.36
64889;BME280;51386;53.082;8.816;2023-05-09T07:23:19;101506.47;;;19.98;41.28
64889;BME280;51386;53.082;8.816;2023-05-09T07:25:46;101510.66;;;20.12;41.33
64889;BME280;51386;53.082;8.816;2023-05-09T07:28:13;101505.91;;;20.14;41.41
64889;BME280;51386;53.082;8.816;2023-05-09T07:30:40;101506.28;;;20.24;41.00
64889;BME280;51386;53.082;8.816;2023-05-09T07:33:09;101497.97;;;20.33;41.59
64889;BME280;51386;53.082;8.816;2023-05-09T07:35:36;101487.59;;;20.43;41.18
64889;BME280;51386;53.082;8.816;2023-05-09T07:38:03;101490.75;;;20.58;40.85
64889;BME280;51386;53.082;8.816;2023-05-09T07:40:33;101487.72;;;20.72;40.80
64889;BME280;51386;53.082;8.816;2023-05-09T07:43:02;101495.81;;;20.84;40.90
64889;BME280;51386;53.082;8.816;2023-05-09T07:45:29;101485.84;;;20.91;40.53
64889;BME280;51386;53.082;8.816;2023-05-09T07:47:56;101480.53;;;21.21;40.54
64889;BME280;51386;53.082;8.816;2023-05-09T07:50:23;101475.53;;;21.84;39.60
64889;BME280;51386;53.082;8.816;2023-05-09T07:52:50;101474.78;;;22.53;38.46
64889;BME280;51386;53.082;8.816;2023-05-09T07:55:18;101464.53;;;23.41;37.24
64889;BME280;51386;53.082;8.816;2023-05-09T07:57:47;101461.88;;;24.41;35.45
64889;BME280;51386;53.082;8.816;2023-05-09T08:00:15;101466.59;;;25.15;34.33
64889;BME280;51386;53.082;8.816;2023-05-09T08:02:42;101459.00;;;25.92;32.91
64889;BME280;51386;53.082;8.816;2023-05-09T08:05:09;101448.13;;;26.61;31.79
64889;BME280;51386;53.082;8.816;2023-05-09T08:07:40;101447.28;;;27.22;31.07
64889;BME280;51386;53.082;8.816;2023-05-09T08:10:09;101444.41;;;27.64;30.54
64889;BME280;51386;53.082;8.816;2023-05-09T08:12:36;101440.06;;;27.88;30.23
64889;BME280;51386;53.082;8.816;2023-05-09T08:15:06;101444.34;;;28.25;29.53
64889;BME280;51386;53.082;8.816;2023-05-09T08:17:33;101434.34;;;28.25;29.28
64889;BME280;51386;53.082;8.816;2023-05-09T08:20:01;101429.22;;;28.08;29.67
64889;BME280;51386;53.082;8.816;2023-05-09T08:22:28;101436.28;;;28.09;29.82
64889;BME280;51386;53.082;8.816;2023-05-09T08:24:55;101427.84;;;27.91;29.99
64889;BME280;51386;53.082;8.816;2023-05-09T08:27:22;101424.91;;;28.02;30.07
64889;BME280;51386;53.082;8.816;2023-05-09T08:29:49;101427.59;;;28.12;29.69
64889;BME280;51386;53.082;8.816;2023-05-09T08:32:18;101421.00;;;28.49;29.41
64889;BME280;51386;53.082;8.816;2023-05-09T08:34:46;101417.44;;;29.12;28.95
64889;BME280;51386;53.082;8.816;2023-05-09T08:37:13;101421.41;;;29.69;28.25
64889;BME280;51386;53.082;8.816;2023-05-09T08:39:41;101416.38;;;29.86;27.43
64889;BME280;51386;53.082;8.816;2023-05-09T08:42:11;101411.56;;;29.78;27.81
64889;BME280;51386;53.082;8.816;2023-05-09T08:44:41;101412.97;;;30.28;27.70
64889;BME280;51386;53.082;8.816;2023-05-09T08:47:10;101419.00;;;30.67;26.81
64889;BME280;51386;53.082;8.816;2023-05-09T08:49:39;101408.31;;;30.75;26.84
64889;BME280;51386;53.082;8.816;2023-05-09T08:52:07;101418.16;;;30.48;26.90
64889;BME280;51386;53.082;8.816;2023-05-09T08:54:35;101410.19;;;30.33;27.10
64889;BME280;51386;53.082;8.816;2023-05-09T08:57:03;101398.59;;;30.22;26.73
64889;BME280;51386;53.082;8.816;2023-05-09T08:59:32;101400.53;;;30.45;27.29
64889;BME280;51386;53.082;8.816;2023-05-09T09:02:04;101391.25;;;30.70;26.86
64889;BME280;51386;53.082;8.816;2023-05-09T09:04:31;101383.13;;;30.89;26.35
64889;BME280;51386;53.082;8.816;2023-05-09T09:07:03;101379.63;;;31.07;25.80
64889;BME280;51386;53.082;8.816;2023-05-09T09:09:34;101376.88;;;31.07;26.35
64889;BME280;51386;53.082;8.816;2023-05-09T09:12:05;101367.59;;;31.45;26.04
64889;BME280;51386;53.082;8.816;2023-05-09T09:14:38;101364.41;;;31.70;24.87
64889;BME280;51386;53.082;8.816;2023-05-09T09:17:09;101360.13;;;32.37;25.02
64889;BME280;51386;53.082;8.816;2023-05-09T09:19:39;101360.88;;;33.14;24.34
64889;BME280;51386;53.082;8.816;2023-05-09T09:22:17;101359.63;;;33.65;23.09
64889;BME280;51386;53.082;8.816;2023-05-09T09:24:45;101359.31;;;33.44;23.38
64889;BME280;51386;53.082;8.816;2023-05-09T09:27:12;101363.78;;;33.62;23.36
64889;BME280;51386;53.082;8.816;2023-05-09T09:29:39;101341.66;;;33.72;23.24
64889;BME280;51386;53.082;8.816;2023-05-09T09:32:07;101350.94;;;33.63;23.19
64889;BME280;51386;53.082;8.816;2023-05-09T09:34:34;101335.03;;;33.42;23.51
64889;BME280;51386;53.082;8.816;2023-05-09T09:37:01;101335.31;;;33.32;23.76
64889;BME280;51386;53.082;8.816;2023-05-09T09:39:29;101323.47;;;33.68;23.63
64889;BME280;51386;53.082;8.816;2023-05-09T09:42:09;101318.50;;;34.09;23.24
64889;BME280;51386;53.082;8.816;2023-05-09T09:44:38;101318.53;;;34.18;23.18
64889;BME280;51386;53.082;8.816;2023-05-09T09:47:09;101329.03;;;34.41;22.79
64889;BME280;51386;53.082;8.816;2023-05-09T09:49:45;101322.31;;;34.82;22.47
64889;BME280;51386;53.082;8.816;2023-05-09T09:52:22;101321.34;;;35.12;22.69
64889;BME280;51386;53.082;8.816;2023-05-09T09:54:54;101312.63;;;35.27;21.56
64889;BME280;51386;53.082;8.816;2023-05-09T09:57:33;101310.66;;;35.36;22.52
64889;BME280;51386;53.082;8.816;2023-05-09T10:00:03;101318.44;;;35.17;21.96
64889;BME280;51386;53.082;8.816;2023-05-09T10:02:30;101312.81;;;35.05;21.82
64889;BME280;51386;53.082;8.816;2023-05-09T10:05:06;101303.50;;;35.06;22.10
64889;BME280;51386;53.082;8.816;2023-05-09T10:07:34;101303.16;;;34.99;22.35
64889;BME280;51386;53.082;8.816;2023-05-09T10:10:03;101285.63;;;34.83;22.69
64889;BME280;51386;53.082;8.816;2023-05-09T10:12:34;101292.38;;;34.77;22.79
64889;BME280;51386;53.082;8.816;2023-05-09T10:15:06;101298.47;;;34.91;23.08
64889;BME280;51386;53.082;8.816;2023-05-09T10:17:35;101281.78;;;34.75;22.69
64889;BME280;51386;53.082;8.816;2023-05-09T10:20:05;101281.13;;;34.61;22.93
64889;BME280;51386;53.082;8.816;2023-05-09T10:22:33;101268.84;;;34.24;23.01
64889;BME280;51386;53.082;8.816;2023-05-09T10:25:07;101271.78;;;33.88;23.57
64889;BME280;51386;53.082;8.816;2023-05-09T10:27:44;101273.72;;;33.88;23.49
64889;BME280;51386;53.082;8.816;2023-05-09T10:30:17;101272.09;;;33.48;23.86
64889;BME280;51386;53.082;8.816;2023-05-09T10:32:53;101260.81;;;33.40;24.04
64889;BME280;51386;53.082;8.816;2023-05-09T10:35:25;101261.09;;;33.61;24.16
64889;BME280;51386;53.082;8.816;2023-05-09T10:37:55;101255.66;;;33.39;23.89
64889;BME280;51386;53.082;8.816;2023-05-09T10:40:25;101247.63;;;33.34;24.15
64889;BME280;51386;53.082;8.816;2023-05-09T10:42:53;101253.66;;;33.00;24.58
64889;BME280;51386;53.082;8.816;2023-05-09T10:45:21;101239.41;;;32.59;24.89
64889;BME280;51386;53.082;8.816;2023-05-09T10:47:50;101231.50;;;32.35;25.67
64889;BME280;51386;53.082;8.816;2023-05-09T10:50:19;101233.41;;;32.35;25.20
64889;BME280;51386;53.082;8.816;2023-05-09T10:53:07;101224.75;;;32.33;25.29
64889;BME280;51386;53.082;8.816;2023-05-09T10:55:48;101212.97;;;31.96;25.62
64889;BME280;51386;53.082;8.816;2023-05-09T10:58:22;101216.22;;;31.98;25.55
64889;BME280;51386;53.082;8.816;2023-05-09T11:00:51;101205.00;;;32.00;26.02
64889;BME280;51386;53.082;8.816;2023-05-09T11:03:18;101205.78;;;32.14;25.73
64889;BME280;51386;53.082;8.816;2023-05-09T11:05:46;101199.38;;;32.32;26.23
64889;BME280;51386;53.082;8.816;2023-05-09T11:08:20;101207.56;;;32.32;25.38
64889;BME280;51386;53.082;8.816;2023-05-09T11:10:48;101198.47;;;32.37;25.17
64889;BME280;51386;53.082;8.816;2023-05-09T11:13:20;101190.03;;;32.47;25.16
64889;BME280;51386;53.082;8.816;2023-05-09T11:16:09;101202.84;;;33.04;24.81
64889;BME280;51386;53.082;8.816;2023-05-09T11:18:51;101198.34;;;33.08;24.44
64889;BME280;51386;53.082;8.816;2023-05-09T11:21:19;101192.31;;;33.20;24.59
64889;BME280;51386;53.082;8.816;2023-05-09T11:23:48;101192.66;;;33.27;24.29
64889;BME280;51386;53.082;8.816;2023-05-09T11:26:21;101175.19;;;33.36;24.27
64889;BME280;51386;53.082;8.816;2023-05-09T11:28:52;101178.25;;;33.43;24.09
64889;BME280;51386;53.082;8.816;2023-05-09T11:31:20;101176.41;;;33.22;24.48
64889;BME280;51386;53.082;8.816;2023-05-09T11:33:49;101169.88;;;33.01;24.94
64889;BME280;51386;53.082;8.816;2023-05-09T11:36:29;101175.69;;;32.77;24.94
64889;BME280;51386;53.082;8.816;2023-05-09T11:39:04;101167.38;;;32.82;25.12
64889;BME280;51386;53.082;8.816;2023-05-09T11:41:39;101174.00;;;32.90;25.01
64889;BME280;51386;53.082;8.816;2023-05-09T11:44:14;101147.41;;;32.73;25.62
64889;BME280;51386;53.082;8.816;2023-05-09T11:46:42;101151.88;;;32.25;26.12
64889;BME280;51386;53.082;8.816;2023-05-09T11:49:09;101145.72;;;31.97;25.84
64889;BME280;51386;53.082;8.816;2023-05-09T11:51:38;101144.09;;;31.82;26.65
64889;BME280;51386;53.082;8.816;2023-05-09T11:54:07;101139.47;;;31.69;26.71
64889;BME280;51386;53.082;8.816;2023-05-09T11:56:37;101143.91;;;31.65;26.54
64889;BME280;51386;53.082;8.816;2023-05-09T11:59:04;101136.69;;;31.47;26.54
64889;BME280;51386;53.082;8.816;2023-05-09T12:01:31;101139.31;;;31.52;27.33
64889;BME280;51386;53.082;8.816;2023-05-09T12:03:58;101138.06;;;31.31;26.75
64889;BME280;51386;53.082;8.816;2023-05-09T12:06:25;101136.88;;;30.77;28.00
64889;BME280;51386;53.082;8.816;2023-05-09T12:08:54;101132.78;;;30.29;28.28
64889;BME280;51386;53.082;8.816;2023-05-09T12:11:23;101122.88;;;30.20;28.44
64889;BME280;51386;53.082;8.816;2023-05-09T12:13:52;101113.25;;;30.27;28.68
64889;BME280;51386;53.082;8.816;2023-05-09T12:16:19;101115.69;;;30.47;28.84
64889;BME280;51386;53.082;8.816;2023-05-09T12:18:49;101117.03;;;30.63;27.95
64889;BME280;51386;53.082;8.816;2023-05-09T12:21:18;101118.25;;;30.85;28.18
64889;BME280;51386;53.082;8.816;2023-05-09T12:23:46;101112.19;;;30.93;28.06
64889;BME280;51386;53.082;8.816;2023-05-09T12:26:17;101107.38;;;30.85;28.08
64889;BME280;51386;53.082;8.816;2023-05-09T12:28:45;101099.69;;;30.59;28.38
64889;BME280;51386;53.082;8.816;2023-05-09T12:31:16;101097.44;;;30.48;27.97
64889;BME280;51386;53.082;8.816;2023-05-09T12:33:43;101103.56;;;30.40;28.67
64889;BME280;51386;53.082;8.816;2023-05-09T12:36:12;101094.44;;;30.49;28.53
64889;BME280;51386;53.082;8.816;2023-05-09T12:38:39;101087.69;;;30.28;28.65
64889;BME280;51386;53.082;8.816;2023-05-09T12:41:08;101092.72;;;30.21;28.20
64889;BME280;51386;53.082;8.816;2023-05-09T12:43:55;101079.22;;;29.97;28.87
64889;BME280;51386;53.082;8.816;2023-05-09T12:46:24;101084.66;;;29.79;29.46
64889;BME280;51386;53.082;8.816;2023-05-09T12:48:52;101083.84;;;29.60;29.46
64889;BME280;51386;53.082;8.816;2023-05-09T12:51:21;101083.44;;;29.47;29.35
64889;BME280;51386;53.082;8.816;2023-05-09T12:53:48;101073.69;;;29.46;29.88
64889;BME280;51386;53.082;8.816;2023-05-09T12:56:17;101073.00;;;29.36;29.95
64889;BME280;51386;53.082;8.816;2023-05-09T12:58:48;101066.22;;;29.57;29.44
64889;BME280;51386;53.082;8.816;2023-05-09T13:01:17;101061.78;;;29.85;29.29